sensor_id;sensor_type;location;lat;lon;timestamp;pressure;altitude;pressure_sealevel;temperature;humidity
56052;BME280;41919;42.648;23.384;2023-04-28T00:02:13;94690.44;;;7.58;46.50
56052;BME280;41919;42.648;23.384;2023-04-28T00:04:38;94714.25;;;7.76;46.51
56052;BME280;41919;42.648;23.384;2023-04-28T00:07:04;94765.63;;;8.04;46.73
56052;BME280;41919;42.648;23.384;2023-04-28T00:09:30;94763.13;;;7.96;46.90
56052;BME280;41919;42.648;23.384;2023-04-28T00:11:55;94750.78;;;7.83;46.59
56052;BME280;41919;42.648;23.384;2023-04-28T00:14:20;94667.94;;;7.20;47.01
56052;BME280;41919;42.648;23.384;2023-04-28T00:16:46;94759.59;;;7.67;47.57
56052;BME280;41919;42.648;23.384;2023-04-28T00:19:11;94662.13;;;7.03;47.43
56052;BME280;41919;42.648;23.384;2023-04-28T00:21:37;94720.94;;;7.19;47.84
56052;BME280;41919;42.648;23.384;2023-04-28T00:24:02;94775.97;;;7.53;47.88
56052;BME280;41919;42.648;23.384;2023-04-28T00:26:28;94789.63;;;7.55;48.20
56052;BME280;41919;42.648;23.384;2023-04-28T00:28:53;94781.19;;;7.53;48.34
56052;BME280;41919;42.648;23.384;2023-04-28T00:31:18;94781.53;;;7.50;48.36
56052;BME280;41919;42.648;23.384;2023-04-28T00:33:44;94710.41;;;6.98;48.59
56052;BME280;41919;42.648;23.384;2023-04-28T00:36:10;94774.88;;;7.32;48.63
56052;BME280;41919;42.648;23.384;2023-04-28T00:38:36;94781.88;;;7.32;48.68
56052;BME280;41919;42.648;23.384;2023-04-28T00:41:01;94773.53;;;7.21;49.20
56052;BME280;41919;42.648;23.384;2023-04-28T00:43:27;94789.13;;;7.21;49.30
56052;BME280;41919;42.648;23.384;2023-04-28T00:45:53;94791.53;;;7.08;49.67
56052;BME280;41919;42.648;23.384;2023-04-28T00:48:18;94778.41;;;7.01;49.96
56052;BME280;41919;42.648;23.384;2023-04-28T00:50:45;94786.34;;;7.08;49.57
56052;BME280;41919;42.648;23.384;2023-04-28T00:53:11;94791.59;;;7.00;49.95
56052;BME280;41919;42.648;23.384;2023-04-28T00:55:37;94785.38;;;6.86;50.41
56052;BME280;41919;42.648;23.384;2023-04-28T00:58:04;94786.06;;;6.80;50.55
56052;BME280;41919;42.648;23.384;2023-04-28T01:00:30;94783.00;;;6.76;50.50
56052;BME280;41919;42.648;23.384;2023-04-28T01:02:56;94802.53;;;6.72;50.57
56052;BME280;41919;42.648;23.384;2023-04-28T01:05:24;94734.84;;;6.27;51.17
56052;BME280;41919;42.648;23.384;2023-04-28T01:07:50;94790.72;;;6.70;51.04
56052;BME280;41919;42.648;23.384;2023-04-28T01:10:16;94800.09;;;6.71;51.10
56052;BME280;41919;42.648;23.384;2023-04-28T01:12:41;94783.09;;;6.45;51.25
56052;BME280;41919;42.648;23.384;2023-04-28T01:15:14;94795.78;;;6.63;51.38
56052;BME280;41919;42.648;23.384;2023-04-28T01:17:40;94807.78;;;6.64;51.63
56052;BME280;41919;42.648;23.384;2023-04-28T01:20:06;94784.91;;;6.59;51.43
56052;BME280;41919;42.648;23.384;2023-04-28T01:22:32;94759.78;;;6.37;51.43
56052;BME280;41919;42.648;23.384;2023-04-28T01:24:57;94727.47;;;6.16;51.45
56052;BME280;41919;42.648;23.384;2023-04-28T01:27:24;94785.16;;;6.50;51.33
56052;BME280;41919;42.648;23.384;2023-04-28T01:29:50;94716.84;;;6.03;51.32
56052;BME280;41919;42.648;23.384;2023-04-28T01:32:15;94729.63;;;6.04;51.40
56052;BME280;41919;42.648;23.384;2023-04-28T01:34:41;94745.38;;;6.03;51.45
56052;BME280;41919;42.648;23.384;2023-04-28T01:37:06;94768.75;;;6.26;51.48
56052;BME280;41919;42.648;23.384;2023-04-28T01:39:32;94729.22;;;5.84;51.61
56052;BME280;41919;42.648;23.384;2023-04-28T01:41:57;94737.63;;;5.86;51.85
56052;BME280;41919;42.648;23.384;2023-04-28T01:44:23;94755.38;;;6.14;51.59
56052;BME280;41919;42.648;23.384;2023-04-28T01:46:48;94768.59;;;6.27;51.29
56052;BME280;41919;42.648;23.384;2023-04-28T01:49:14;94803.06;;;6.44;51.39
56052;BME280;41919;42.648;23.384;2023-04-28T01:51:39;94771.25;;;6.11;51.36
56052;BME280;41919;42.648;23.384;2023-04-28T01:54:06;94798.09;;;6.26;51.50
56052;BME280;41919;42.648;23.384;2023-04-28T01:56:31;94724.19;;;5.83;51.35
56052;BME280;41919;42.648;23.384;2023-04-28T01:58:57;94769.66;;;6.10;51.34
56052;BME280;41919;42.648;23.384;2023-04-28T02:01:22;94806.50;;;6.37;51.07
56052;BME280;41919;42.648;23.384;2023-04-28T02:03:48;94679.91;;;5.61;51.06
56052;BME280;41919;42.648;23.384;2023-04-28T02:06:14;94816.69;;;6.38;51.16
56052;BME280;41919;42.648;23.384;2023-04-28T02:08:39;94748.16;;;5.93;51.18
56052;BME280;41919;42.648;23.384;2023-04-28T02:11:05;94721.97;;;5.80;51.48
56052;BME280;41919;42.648;23.384;2023-04-28T02:13:30;94810.13;;;6.19;51.20
56052;BME280;41919;42.648;23.384;2023-04-28T02:15:59;94813.13;;;6.08;51.76
56052;BME280;41919;42.648;23.384;2023-04-28T02:18:25;94811.66;;;6.14;51.34
56052;BME280;41919;42.648;23.384;2023-04-28T02:20:50;94766.69;;;5.82;51.83
56052;BME280;41919;42.648;23.384;2023-04-28T02:23:16;94802.63;;;6.01;51.68
56052;BME280;41919;42.648;23.384;2023-04-28T02:25:41;94825.47;;;6.06;52.05
56052;BME280;41919;42.648;23.384;2023-04-28T02:28:07;94773.50;;;5.75;52.11
56052;BME280;41919;42.648;23.384;2023-04-28T02:30:32;94778.50;;;5.84;52.10
56052;BME280;41919;42.648;23.384;2023-04-28T02:32:57;94755.84;;;5.78;51.84
56052;BME280;41919;42.648;23.384;2023-04-28T02:35:23;94826.88;;;6.17;52.22
56052;BME280;41919;42.648;23.384;2023-04-28T02:37:48;94833.34;;;6.21;51.81
56052;BME280;41919;42.648;23.384;2023-04-28T02:40:14;94750.97;;;5.75;51.90
56052;BME280;41919;42.648;23.384;2023-04-28T02:42:40;94815.69;;;6.16;51.94
56052;BME280;41919;42.648;23.384;2023-04-28T02:45:05;94838.66;;;6.27;51.72
56052;BME280;41919;42.648;23.384;2023-04-28T02:47:31;94773.94;;;5.86;51.67
56052;BME280;41919;42.648;23.384;2023-04-28T02:49:56;94823.47;;;6.16;51.64
56052;BME280;41919;42.648;23.384;2023-04-28T02:52:22;94766.53;;;5.75;52.08
56052;BME280;41919;42.648;23.384;2023-04-28T02:54:47;94770.44;;;5.71;51.99
56052;BME280;41919;42.648;23.384;2023-04-28T02:57:13;94751.06;;;5.59;52.12
56052;BME280;41919;42.648;23.384;2023-04-28T02:59:38;94832.59;;;6.04;52.29
56052;BME280;41919;42.648;23.384;2023-04-28T03:02:04;94776.47;;;5.72;52.42
56052;BME280;41919;42.648;23.384;2023-04-28T03:04:29;94847.63;;;6.17;52.29
56052;BME280;41919;42.648;23.384;2023-04-28T03:06:55;94852.69;;;6.10;52.46
56052;BME280;41919;42.648;23.384;2023-04-28T03:09:20;94853.06;;;5.99;52.67
56052;BME280;41919;42.648;23.384;2023-04-28T03:11:45;94849.59;;;6.15;57.68
56052;BME280;41919;42.648;23.384;2023-04-28T03:14:11;94760.44;;;5.60;57.18
56052;BME280;41919;42.648;23.384;2023-04-28T03:16:37;94834.53;;;6.02;52.78
56052;BME280;41919;42.648;23.384;2023-04-28T03:19:02;94833.16;;;6.22;52.11
56052;BME280;41919;42.648;23.384;2023-04-28T03:21:28;94825.81;;;6.34;51.66
56052;BME280;41919;42.648;23.384;2023-04-28T03:23:54;94863.97;;;6.57;51.28
56052;BME280;41919;42.648;23.384;2023-04-28T03:26:19;94846.66;;;6.49;51.35
56052;BME280;41919;42.648;23.384;2023-04-28T03:28:45;94812.56;;;6.21;50.93
56052;BME280;41919;42.648;23.384;2023-04-28T03:31:10;94788.78;;;6.09;50.80
56052;BME280;41919;42.648;23.384;2023-04-28T03:33:36;94817.53;;;6.31;50.92
56052;BME280;41919;42.648;23.384;2023-04-28T03:36:01;94866.41;;;6.58;50.67
56052;BME280;41919;42.648;23.384;2023-04-28T03:38:27;94848.16;;;6.43;50.68
56052;BME280;41919;42.648;23.384;2023-04-28T03:40:52;94883.22;;;6.71;50.41
56052;BME280;41919;42.648;23.384;2023-04-28T03:43:18;94877.53;;;6.67;50.45
56052;BME280;41919;42.648;23.384;2023-04-28T03:45:43;94802.16;;;6.29;49.99
56052;BME280;41919;42.648;23.384;2023-04-28T03:48:08;94852.28;;;6.61;49.66
56052;BME280;41919;42.648;23.384;2023-04-28T03:50:34;94892.53;;;6.88;48.95
56052;BME280;41919;42.648;23.384;2023-04-28T03:52:59;94878.19;;;6.92;49.03
56052;BME280;41919;42.648;23.384;2023-04-28T03:55:25;94875.78;;;6.91;48.55
56052;BME280;41919;42.648;23.384;2023-04-28T03:57:51;94841.63;;;6.79;49.13
56052;BME280;41919;42.648;23.384;2023-04-28T04:00:17;94849.84;;;7.05;48.03
56052;BME280;41919;42.648;23.384;2023-04-28T04:02:42;94918.44;;;7.65;47.32
56052;BME280;41919;42.648;23.384;2023-04-28T04:05:08;94837.41;;;7.39;46.52
56052;BME280;41919;42.648;23.384;2023-04-28T04:07:33;94921.34;;;8.15;45.46
56052;BME280;41919;42.648;23.384;2023-04-28T04:09:59;94925.84;;;8.51;44.55
56052;BME280;41919;42.648;23.384;2023-04-28T04:12:24;94921.69;;;8.72;44.11
56052;BME280;41919;42.648;23.384;2023-04-28T04:14:49;94852.06;;;8.66;44.02
56052;BME280;41919;42.648;23.384;2023-04-28T04:17:15;94862.72;;;9.07;42.78
56052;BME280;41919;42.648;23.384;2023-04-28T04:19:40;94922.97;;;9.62;41.63
56052;BME280;41919;42.648;23.384;2023-04-28T04:22:06;94890.44;;;9.58;41.59
56052;BME280;41919;42.648;23.384;2023-04-28T04:24:31;94917.88;;;10.10;40.92
56052;BME280;41919;42.648;23.384;2023-04-28T04:26:56;94854.41;;;10.03;40.29
56052;BME280;41919;42.648;23.384;2023-04-28T04:29:22;94856.81;;;10.46;39.37
56052;BME280;41919;42.648;23.384;2023-04-28T04:31:47;94913.94;;;11.11;38.27
56052;BME280;41919;42.648;23.384;2023-04-28T04:34:13;94939.09;;;11.25;37.66
56052;BME280;41919;42.648;23.384;2023-04-28T04:36:39;94937.56;;;11.57;37.67
56052;BME280;41919;42.648;23.384;2023-04-28T04:39:04;94937.19;;;11.87;37.65
56052;BME280;41919;42.648;23.384;2023-04-28T04:41:30;94927.47;;;12.21;36.22
56052;BME280;41919;42.648;23.384;2023-04-28T04:43:55;94937.50;;;12.44;35.40
56052;BME280;41919;42.648;23.384;2023-04-28T04:46:21;94892.81;;;12.26;35.39
56052;BME280;41919;42.648;23.384;2023-04-28T04:48:46;94890.78;;;12.28;34.56
56052;BME280;41919;42.648;23.384;2023-04-28T04:51:12;94873.06;;;12.30;34.76
56052;BME280;41919;42.648;23.384;2023-04-28T04:53:37;94874.44;;;12.39;34.14
56052;BME280;41919;42.648;23.384;2023-04-28T04:56:03;94943.34;;;13.05;35.66
56052;BME280;41919;42.648;23.384;2023-04-28T04:58:29;94944.28;;;13.17;34.57
56052;BME280;41919;42.648;23.384;2023-04-28T05:00:54;94883.25;;;12.97;35.67
56052;BME280;41919;42.648;23.384;2023-04-28T05:03:20;94941.75;;;13.42;33.43
56052;BME280;41919;42.648;23.384;2023-04-28T05:05:46;94957.41;;;13.87;33.03
56052;BME280;41919;42.648;23.384;2023-04-28T05:08:12;94797.44;;;12.72;32.17
56052;BME280;41919;42.648;23.384;2023-04-28T05:10:37;94941.16;;;13.72;33.35
56052;BME280;41919;42.648;23.384;2023-04-28T05:13:03;94895.81;;;13.58;32.74
56052;BME280;41919;42.648;23.384;2023-04-28T05:15:28;94959.13;;;14.25;32.10
56052;BME280;41919;42.648;23.384;2023-04-28T05:17:55;94968.22;;;14.48;31.54
56052;BME280;41919;42.648;23.384;2023-04-28T05:20:20;94945.28;;;14.37;31.99
56052;BME280;41919;42.648;23.384;2023-04-28T05:22:46;94959.72;;;14.71;32.10
56052;BME280;41919;42.648;23.384;2023-04-28T05:25:11;94952.91;;;14.63;31.07
56052;BME280;41919;42.648;23.384;2023-04-28T05:27:37;94914.50;;;14.37;30.89
56052;BME280;41919;42.648;23.384;2023-04-28T05:30:05;94951.31;;;14.81;31.05
56052;BME280;41919;42.648;23.384;2023-04-28T05:32:33;94884.81;;;14.74;30.59
56052;BME280;41919;42.648;23.384;2023-04-28T05:34:58;94948.25;;;15.33;30.31
56052;BME280;41919;42.648;23.384;2023-04-28T05:37:24;94948.06;;;15.46;30.42
56052;BME280;41919;42.648;23.384;2023-04-28T05:39:49;94944.88;;;15.86;29.70
56052;BME280;41919;42.648;23.384;2023-04-28T05:42:14;94944.09;;;15.67;29.88
56052;BME280;41919;42.648;23.384;2023-04-28T05:44:40;94948.56;;;15.66;30.07
56052;BME280;41919;42.648;23.384;2023-04-28T05:47:05;94891.03;;;15.09;30.77
56052;BME280;41919;42.648;23.384;2023-04-28T05:49:31;94945.91;;;16.08;30.07
56052;BME280;41919;42.648;23.384;2023-04-28T05:51:56;94956.94;;;16.64;29.24
56052;BME280;41919;42.648;23.384;2023-04-28T05:54:22;94888.13;;;16.42;28.24
56052;BME280;41919;42.648;23.384;2023-04-28T05:56:47;94955.75;;;16.96;28.57
56052;BME280;41919;42.648;23.384;2023-04-28T05:59:13;94965.25;;;17.09;27.88
56052;BME280;41919;42.648;23.384;2023-04-28T06:01:38;94952.91;;;17.14;27.99
56052;BME280;41919;42.648;23.384;2023-04-28T06:04:04;94945.09;;;17.19;28.10
56052;BME280;41919;42.648;23.384;2023-04-28T06:06:29;94912.50;;;16.85;28.20
56052;BME280;41919;42.648;23.384;2023-04-28T06:08:55;94947.06;;;17.70;27.47
56052;BME280;41919;42.648;23.384;2023-04-28T06:11:21;94902.38;;;16.94;27.14
56052;BME280;41919;42.648;23.384;2023-04-28T06:13:47;94952.75;;;16.92;27.69
56052;BME280;41919;42.648;23.384;2023-04-28T06:16:14;94949.59;;;17.19;28.26
56052;BME280;41919;42.648;23.384;2023-04-28T06:18:40;94923.78;;;17.09;27.39
56052;BME280;41919;42.648;23.384;2023-04-28T06:21:06;94954.72;;;17.25;27.12
56052;BME280;41919;42.648;23.384;2023-04-28T06:23:31;94958.19;;;17.72;26.81
56052;BME280;41919;42.648;23.384;2023-04-28T06:25:57;94956.97;;;18.25;25.81
56052;BME280;41919;42.648;23.384;2023-04-28T06:28:22;94952.06;;;18.90;25.93
56052;BME280;41919;42.648;23.384;2023-04-28T06:30:47;94919.84;;;19.47;24.60
56052;BME280;41919;42.648;23.384;2023-04-28T06:33:13;94950.16;;;19.56;24.35
56052;BME280;41919;42.648;23.384;2023-04-28T06:35:38;94957.66;;;19.65;24.33
56052;BME280;41919;42.648;23.384;2023-04-28T06:38:05;94904.94;;;19.68;23.72
56052;BME280;41919;42.648;23.384;2023-04-28T06:40:30;94954.31;;;20.82;23.25
56052;BME280;41919;42.648;23.384;2023-04-28T06:42:56;94900.31;;;20.61;22.68
56052;BME280;41919;42.648;23.384;2023-04-28T06:45:21;94891.53;;;21.33;22.02
56052;BME280;41919;42.648;23.384;2023-04-28T06:47:47;94895.63;;;22.13;21.52
56052;BME280;41919;42.648;23.384;2023-04-28T06:50:12;94920.16;;;23.01;20.10
56052;BME280;41919;42.648;23.384;2023-04-28T06:52:38;94937.00;;;23.56;19.90
56052;BME280;41919;42.648;23.384;2023-04-28T06:55:07;94933.97;;;24.42;19.44
56052;BME280;41919;42.648;23.384;2023-04-28T06:57:33;94927.22;;;24.79;18.34
56052;BME280;41919;42.648;23.384;2023-04-28T06:59:59;94924.31;;;25.42;17.46
56052;BME280;41919;42.648;23.384;2023-04-28T07:02:24;94937.28;;;25.92;16.99
56052;BME280;41919;42.648;23.384;2023-04-28T07:04:51;94946.97;;;26.07;17.22
56052;BME280;41919;42.648;23.384;2023-04-28T07:07:16;94938.00;;;25.98;17.34
56052;BME280;41919;42.648;23.384;2023-04-28T07:09:42;94945.44;;;25.82;17.06
56052;BME280;41919;42.648;23.384;2023-04-28T07:12:07;94890.81;;;25.83;16.62
56052;BME280;41919;42.648;23.384;2023-04-28T07:14:32;94897.94;;;25.74;16.55
56052;BME280;41919;42.648;23.384;2023-04-28T07:16:58;94951.25;;;26.08;16.63
56052;BME280;41919;42.648;23.384;2023-04-28T07:19:23;94906.25;;;25.72;16.21
56052;BME280;41919;42.648;23.384;2023-04-28T07:21:49;94925.69;;;25.16;16.75
56052;BME280;41919;42.648;23.384;2023-04-28T07:24:14;94934.16;;;24.21;17.27
56052;BME280;41919;42.648;23.384;2023-04-28T07:26:40;94929.13;;;23.80;18.23
56052;BME280;41919;42.648;23.384;2023-04-28T07:29:05;94890.13;;;22.85;19.24
56052;BME280;41919;42.648;23.384;2023-04-28T07:31:33;94893.41;;;22.61;18.98
56052;BME280;41919;42.648;23.384;2023-04-28T07:33:58;94943.63;;;23.09;19.23
56052;BME280;41919;42.648;23.384;2023-04-28T07:36:24;94933.34;;;22.66;19.80
56052;BME280;41919;42.648;23.384;2023-04-28T07:38:49;94940.84;;;21.82;20.57
56052;BME280;41919;42.648;23.384;2023-04-28T07:41:16;94884.94;;;21.51;19.93
56052;BME280;41919;42.648;23.384;2023-04-28T07:43:41;94946.69;;;22.20;19.75
56052;BME280;41919;42.648;23.384;2023-04-28T07:46:07;94888.59;;;21.20;20.31
56052;BME280;41919;42.648;23.384;2023-04-28T07:48:33;94912.19;;;21.06;20.41
56052;BME280;41919;42.648;23.384;2023-04-28T07:50:59;94890.25;;;21.51;20.40
56052;BME280;41919;42.648;23.384;2023-04-28T07:53:24;94937.66;;;21.90;20.10
56052;BME280;41919;42.648;23.384;2023-04-28T07:55:50;94896.97;;;20.38;21.29
56052;BME280;41919;42.648;23.384;2023-04-28T07:58:15;94944.81;;;20.48;22.25
56052;BME280;41919;42.648;23.384;2023-04-28T08:00:41;94922.03;;;19.55;22.91
56052;BME280;41919;42.648;23.384;2023-04-28T08:03:06;94833.94;;;18.67;23.13
56052;BME280;41919;42.648;23.384;2023-04-28T08:05:31;94921.16;;;19.72;23.39
56052;BME280;41919;42.648;23.384;2023-04-28T08:07:58;94879.00;;;19.43;23.46
56052;BME280;41919;42.648;23.384;2023-04-28T08:10:23;94930.84;;;19.88;22.31
56052;BME280;41919;42.648;23.384;2023-04-28T08:12:50;94939.34;;;20.60;21.79
56052;BME280;41919;42.648;23.384;2023-04-28T08:15:16;94940.06;;;21.03;21.47
56052;BME280;41919;42.648;23.384;2023-04-28T08:17:41;94874.03;;;19.79;21.86
56052;BME280;41919;42.648;23.384;2023-04-28T08:20:07;94941.81;;;19.20;22.63
56052;BME280;41919;42.648;23.384;2023-04-28T08:22:33;94946.81;;;19.17;23.76
56052;BME280;41919;42.648;23.384;2023-04-28T08:24:59;94898.75;;;19.30;22.37
56052;BME280;41919;42.648;23.384;2023-04-28T08:27:25;94871.22;;;19.36;22.43
56052;BME280;41919;42.648;23.384;2023-04-28T08:29:50;94871.72;;;19.61;22.35
56052;BME280;41919;42.648;23.384;2023-04-28T08:32:16;94940.81;;;20.46;22.08
56052;BME280;41919;42.648;23.384;2023-04-28T08:34:42;94866.59;;;20.18;21.59
56052;BME280;41919;42.648;23.384;2023-04-28T08:37:07;94886.13;;;20.50;21.67
56052;BME280;41919;42.648;23.384;2023-04-28T08:39:32;94942.16;;;20.48;21.09
56052;BME280;41919;42.648;23.384;2023-04-28T08:42:02;94930.53;;;20.17;21.32
56052;BME280;41919;42.648;23.384;2023-04-28T08:44:35;94909.06;;;19.86;21.21
56052;BME280;41919;42.648;23.384;2023-04-28T08:47:02;94877.44;;;19.47;21.65
56052;BME280;41919;42.648;23.384;2023-04-28T08:49:33;94862.97;;;19.33;22.01
56052;BME280;41919;42.648;23.384;2023-04-28T08:52:00;94839.88;;;19.55;21.79
56052;BME280;41919;42.648;23.384;2023-04-28T08:54:35;94897.53;;;20.45;21.44
56052;BME280;41919;42.648;23.384;2023-04-28T08:57:00;94920.31;;;20.36;21.83
56052;BME280;41919;42.648;23.384;2023-04-28T08:59:26;94913.50;;;20.08;22.22
56052;BME280;41919;42.648;23.384;2023-04-28T09:01:52;94904.41;;;19.98;21.80
56052;BME280;41919;42.648;23.384;2023-04-28T09:04:18;94917.41;;;19.68;21.67
56052;BME280;41919;42.648;23.384;2023-04-28T09:06:44;94847.41;;;19.09;21.92
56052;BME280;41919;42.648;23.384;2023-04-28T09:09:29;94918.28;;;19.24;22.56
56052;BME280;41919;42.648;23.384;2023-04-28T09:11:55;94907.88;;;19.17;23.29
56052;BME280;41919;42.648;23.384;2023-04-28T09:14:24;94908.72;;;18.79;23.13
56052;BME280;41919;42.648;23.384;2023-04-28T09:16:49;94824.88;;;18.40;23.55
56052;BME280;41919;42.648;23.384;2023-04-28T09:19:16;94908.69;;;19.45;23.93
56052;BME280;41919;42.648;23.384;2023-04-28T09:21:53;94901.38;;;19.57;22.98
56052;BME280;41919;42.648;23.384;2023-04-28T09:27:02;94831.44;;;18.55;23.94
56052;BME280;41919;42.648;23.384;2023-04-28T09:29:29;94825.56;;;18.31;23.81
56052;BME280;41919;42.648;23.384;2023-04-28T09:32:17;94886.44;;;18.53;25.20
56052;BME280;41919;42.648;23.384;2023-04-28T09:34:49;94837.34;;;18.62;24.24
56052;BME280;41919;42.648;23.384;2023-04-28T09:37:16;94889.88;;;18.75;23.96
56052;BME280;41919;42.648;23.384;2023-04-28T09:39:44;94854.53;;;18.82;24.04
56052;BME280;41919;42.648;23.384;2023-04-28T09:42:30;94880.53;;;18.68;25.47
56052;BME280;41919;42.648;23.384;2023-04-28T09:44:56;94862.69;;;18.36;25.47
56052;BME280;41919;42.648;23.384;2023-04-28T09:47:22;94804.72;;;18.12;23.57
56052;BME280;41919;42.648;23.384;2023-04-28T09:49:55;94838.75;;;18.48;24.31
56052;BME280;41919;42.648;23.384;2023-04-28T09:52:22;94869.91;;;19.07;24.81
56052;BME280;41919;42.648;23.384;2023-04-28T09:54:52;94797.63;;;18.62;23.63
56052;BME280;41919;42.648;23.384;2023-04-28T09:57:19;94813.75;;;18.38;23.39
56052;BME280;41919;42.648;23.384;2023-04-28T09:59:52;94797.56;;;18.13;23.70
56052;BME280;41919;42.648;23.384;2023-04-28T10:02:20;94838.53;;;18.32;24.23
56052;BME280;41919;42.648;23.384;2023-04-28T10:04:48;94802.63;;;18.14;24.23
56052;BME280;41919;42.648;23.384;2023-04-28T10:07:15;94778.25;;;18.56;30.58
56052;BME280;41919;42.648;23.384;2023-04-28T10:09:41;94781.56;;;18.25;27.85
56052;BME280;41919;42.648;23.384;2023-04-28T10:12:14;94828.06;;;18.82;26.30
56052;BME280;41919;42.648;23.384;2023-04-28T10:14:40;94832.97;;;18.51;28.17
56052;BME280;41919;42.648;23.384;2023-04-28T10:17:07;94778.75;;;18.09;29.06
56052;BME280;41919;42.648;23.384;2023-04-28T10:19:36;94780.53;;;18.26;25.49
56052;BME280;41919;42.648;23.384;2023-04-28T10:27:37;94814.88;;;18.03;23.08
56052;BME280;41919;42.648;23.384;2023-04-28T10:30:13;94833.72;;;17.73;23.28
56052;BME280;41919;42.648;23.384;2023-04-28T10:32:39;94830.69;;;17.64;23.70
56052;BME280;41919;42.648;23.384;2023-04-28T10:38:19;94826.81;;;17.21;25.05
56052;BME280;41919;42.648;23.384;2023-04-28T10:40:50;94818.16;;;16.80;26.10
56052;BME280;41919;42.648;23.384;2023-04-28T10:56:25;94792.19;;;16.20;25.88
56052;BME280;41919;42.648;23.384;2023-04-28T10:58:55;94768.50;;;15.96;26.65
56052;BME280;41919;42.648;23.384;2023-04-28T11:03:49;94744.66;;;15.91;26.30
56052;BME280;41919;42.648;23.384;2023-04-28T11:06:26;94756.03;;;15.92;24.85
56052;BME280;41919;42.648;23.384;2023-04-28T11:08:56;94785.66;;;16.11;25.88
56052;BME280;41919;42.648;23.384;2023-04-28T11:11:27;94793.22;;;16.19;25.87
56052;BME280;41919;42.648;23.384;2023-04-28T11:13:54;94743.31;;;15.77;25.44
56052;BME280;41919;42.648;23.384;2023-04-28T11:16:22;94797.03;;;16.11;25.30
56052;BME280;41919;42.648;23.384;2023-04-28T11:21:18;94793.94;;;16.02;24.27
56052;BME280;41919;42.648;23.384;2023-04-28T11:23:45;94772.47;;;16.11;25.60
56052;BME280;41919;42.648;23.384;2023-04-28T11:26:10;94721.06;;;15.96;26.40
56052;BME280;41919;42.648;23.384;2023-04-28T11:28:46;94698.19;;;15.73;24.98
56052;BME280;41919;42.648;23.384;2023-04-28T11:33:37;94782.69;;;16.19;25.28
56052;BME280;41919;42.648;23.384;2023-04-28T11:36:04;94778.94;;;16.43;25.43
56052;BME280;41919;42.648;23.384;2023-04-28T11:38:29;94761.59;;;16.19;25.10
56052;BME280;41919;42.648;23.384;2023-04-28T11:41:06;94760.91;;;16.12;24.84
56052;BME280;41919;42.648;23.384;2023-04-28T11:43:33;94773.44;;;16.33;25.18
56052;BME280;41919;42.648;23.384;2023-04-28T11:45:58;94756.03;;;16.32;24.94
56052;BME280;41919;42.648;23.384;2023-04-28T11:48:24;94761.22;;;16.27;24.97
56052;BME280;41919;42.648;23.384;2023-04-28T11:50:49;94761.25;;;16.15;23.79
56052;BME280;41919;42.648;23.384;2023-04-28T11:53:15;94757.50;;;16.40;24.28
56052;BME280;41919;42.648;23.384;2023-04-28T11:55:40;94752.72;;;16.25;23.40
56052;BME280;41919;42.648;23.384;2023-04-28T12:00:43;94751.75;;;16.43;23.51
56052;BME280;41919;42.648;23.384;2023-04-28T12:03:09;94751.75;;;16.43;22.36
56052;BME280;41919;42.648;23.384;2023-04-28T12:05:35;94745.53;;;16.49;22.34
56052;BME280;41919;42.648;23.384;2023-04-28T12:08:08;94742.38;;;16.64;22.21
56052;BME280;41919;42.648;23.384;2023-04-28T12:10:34;94734.00;;;16.38;23.09
56052;BME280;41919;42.648;23.384;2023-04-28T12:13:14;94750.38;;;16.40;24.42
56052;BME280;41919;42.648;23.384;2023-04-28T12:15:40;94732.66;;;16.53;24.41
56052;BME280;41919;42.648;23.384;2023-04-28T12:18:09;94690.44;;;16.07;24.66
56052;BME280;41919;42.648;23.384;2023-04-28T12:20:40;94724.84;;;16.29;23.72
56052;BME280;41919;42.648;23.384;2023-04-28T12:23:06;94722.84;;;16.48;24.19
56052;BME280;41919;42.648;23.384;2023-04-28T12:25:32;94669.94;;;16.26;23.79
56052;BME280;41919;42.648;23.384;2023-04-28T12:28:06;94644.81;;;16.06;24.12
56052;BME280;41919;42.648;23.384;2023-04-28T12:30:33;94729.09;;;16.59;23.32
56052;BME280;41919;42.648;23.384;2023-04-28T12:32:59;94719.13;;;16.61;23.37
56052;BME280;41919;42.648;23.384;2023-04-28T12:35:25;94710.38;;;16.60;23.48
56052;BME280;41919;42.648;23.384;2023-04-28T12:37:52;94687.66;;;16.42;22.12
56052;BME280;41919;42.648;23.384;2023-04-28T12:40:19;94714.91;;;16.77;22.28
56052;BME280;41919;42.648;23.384;2023-04-28T12:42:44;94711.53;;;16.81;22.10
56052;BME280;41919;42.648;23.384;2023-04-28T12:45:10;94645.72;;;16.58;22.16
56052;BME280;41919;42.648;23.384;2023-04-28T12:47:36;94690.47;;;16.98;23.38
56052;BME280;41919;42.648;23.384;2023-04-28T12:50:03;94634.59;;;16.73;24.42
56052;BME280;41919;42.648;23.384;2023-04-28T12:52:28;94637.56;;;16.76;25.40
56052;BME280;41919;42.648;23.384;2023-04-28T12:54:58;94652.38;;;16.94;25.13
56052;BME280;41919;42.648;23.384;2023-04-28T12:57:23;94684.47;;;16.86;24.25
56052;BME280;41919;42.648;23.384;2023-04-28T12:59:48;94685.19;;;17.15;24.48
56052;BME280;41919;42.648;23.384;2023-04-28T13:02:16;94691.47;;;17.31;24.43
56052;BME280;41919;42.648;23.384;2023-04-28T13:04:41;94621.44;;;16.90;25.24
56052;BME280;41919;42.648;23.384;2023-04-28T13:07:09;94684.38;;;16.98;25.64
56052;BME280;41919;42.648;23.384;2023-04-28T13:09:35;94685.13;;;16.81;25.46
56052;BME280;41919;42.648;23.384;2023-04-28T13:12:02;94633.22;;;16.70;25.42
56052;BME280;41919;42.648;23.384;2023-04-28T13:14:27;94609.19;;;16.50;26.44
56052;BME280;41919;42.648;23.384;2023-04-28T13:16:53;94614.91;;;16.30;25.70
56052;BME280;41919;42.648;23.384;2023-04-28T13:19:18;94652.03;;;16.57;26.47
56052;BME280;41919;42.648;23.384;2023-04-28T13:21:44;94663.81;;;16.83;26.44
56052;BME280;41919;42.648;23.384;2023-04-28T13:24:11;94672.84;;;16.87;26.01